Pine Grove Furnace, Pennsylvania
Current Conditions -  °F | °C
As of 2:53 PM on Thursday 29 Jan 2015 (Local Time) from KTHV Reporting Station
Overcast Overcast  
Wind Chill: 23°   Ceiling: 7500
Heat Index: 31°   Visibility: 10mi
Dew Point: 11°   Wind: 8mph
Humidity: 43%   Direction: 160°SSE
Pressure: 30.07"   Gusts: NA
Location:  40.0362°N, 77.1908°W
Report Text: KTHV 291953Z AUTO 16007KT 10SM BKN075 OVC090 M01/M12 A3007 RMK AO2 SLP192 T10061117
Loading
Personal Weather Stations






























Interactive Weather Map New forecast layout! Learn more

10-Day Weather Forecast

Advertisements
Track Severe Weather on mobile